createdAt,value
2022-12-18T00:00:38.018Z,77.70
2022-12-18T00:01:38.097Z,77.70
2022-12-18T00:02:38.066Z,77.59
2022-12-18T00:03:38.592Z,77.70
2022-12-18T00:04:37.976Z,77.91
2022-12-18T00:05:37.971Z,78.05
2022-12-18T00:06:37.971Z,78.26
2022-12-18T00:07:37.943Z,78.37
2022-12-18T00:08:37.935Z,78.37
2022-12-18T00:09:39.680Z,78.26
2022-12-18T00:10:37.913Z,78.26
2022-12-18T00:11:37.932Z,78.37
2022-12-18T00:12:37.901Z,78.37
2022-12-18T00:13:38.288Z,78.37
2022-12-18T00:14:37.873Z,78.37
2022-12-18T00:15:37.871Z,78.47
2022-12-18T00:16:37.938Z,78.58
2022-12-18T00:17:37.854Z,78.58
2022-12-18T00:18:38.220Z,78.69
2022-12-18T00:19:37.833Z,78.69
2022-12-18T00:20:37.814Z,78.58
2022-12-18T00:21:37.836Z,78.47
2022-12-18T00:22:37.802Z,78.37
2022-12-18T00:23:38.148Z,78.05
2022-12-18T00:24:37.777Z,77.73
2022-12-18T00:25:37.774Z,77.52
2022-12-18T00:26:37.767Z,77.52
2022-12-18T00:27:37.775Z,77.62
2022-12-18T00:28:37.743Z,77.62
2022-12-18T00:29:37.735Z,77.73
2022-12-18T00:30:37.728Z,77.94
2022-12-18T00:31:37.841Z,78.05
2022-12-18T00:32:37.727Z,78.19
2022-12-18T00:33:38.140Z,78.30
2022-12-18T00:34:37.685Z,78.40
2022-12-18T00:35:37.690Z,78.37
2022-12-18T00:36:37.665Z,78.26
2022-12-18T00:37:37.675Z,78.19
2022-12-18T00:38:37.645Z,78.08
2022-12-18T00:39:37.709Z,78.16
2022-12-18T00:40:37.628Z,78.16
2022-12-18T00:41:37.655Z,78.08
2022-12-18T00:42:37.619Z,77.98
2022-12-18T00:43:37.901Z,78.08
2022-12-18T00:44:37.588Z,78.19
2022-12-18T00:45:37.635Z,78.08
2022-12-18T00:46:37.569Z,78.08
2022-12-18T00:47:37.581Z,78.08
2022-12-18T00:48:37.556Z,77.98
2022-12-18T00:49:37.561Z,77.87
2022-12-18T00:50:37.530Z,77.76
2022-12-18T00:51:37.531Z,77.76
2022-12-18T00:52:37.529Z,77.55
2022-12-18T00:53:37.787Z,77.09
2022-12-18T00:54:37.489Z,76.88
2022-12-18T00:55:37.500Z,76.78
2022-12-18T00:56:45.788Z,76.70
2022-12-18T00:57:38.483Z,76.60
2022-12-18T00:58:37.450Z,76.60
2022-12-18T00:59:37.440Z,76.70
2022-12-18T01:00:37.483Z,76.70
2022-12-18T01:01:37.590Z,76.60
2022-12-18T01:02:37.577Z,76.60
2022-12-18T01:03:37.633Z,76.50
2022-12-18T01:04:37.400Z,76.50
2022-12-18T01:05:37.382Z,76.50
2022-12-18T01:06:37.372Z,76.60
2022-12-18T01:07:37.382Z,76.39
2022-12-18T01:08:37.353Z,76.50
2022-12-18T01:09:37.351Z,76.60
2022-12-18T01:10:37.330Z,76.84
2022-12-18T01:11:37.327Z,76.95
2022-12-18T01:12:37.331Z,76.95
2022-12-18T01:13:37.583Z,77.06
2022-12-18T01:14:38.269Z,77.16
2022-12-18T01:15:37.293Z,77.16
2022-12-18T01:16:37.303Z,77.27
2022-12-18T01:17:37.282Z,77.37
2022-12-18T01:18:37.253Z,77.48
2022-12-18T01:19:37.244Z,77.48
2022-12-18T01:20:37.224Z,77.48
2022-12-18T01:21:37.231Z,77.37
2022-12-18T01:22:37.231Z,77.37
2022-12-18T01:23:37.607Z,77.27
2022-12-18T01:24:37.206Z,77.48
2022-12-18T01:25:37.186Z,77.59
2022-12-18T01:26:37.175Z,77.48
2022-12-18T01:27:37.186Z,77.48
2022-12-18T01:28:37.155Z,77.48
2022-12-18T01:29:37.145Z,77.37
2022-12-18T01:30:37.148Z,77.37
2022-12-18T01:31:37.189Z,77.27
2022-12-18T01:32:37.135Z,77.27
2022-12-18T01:33:37.473Z,77.16
2022-12-18T01:34:37.117Z,77.06
2022-12-18T01:35:37.086Z,76.95
2022-12-18T01:36:37.075Z,77.06
2022-12-18T01:37:37.083Z,77.16
2022-12-18T01:38:37.048Z,77.16
2022-12-18T01:39:37.054Z,77.16
2022-12-18T01:40:37.034Z,77.27
2022-12-18T01:41:37.027Z,77.37
2022-12-18T01:42:37.037Z,77.48
2022-12-18T01:43:37.360Z,77.48
2022-12-18T01:44:36.997Z,77.37
2022-12-18T01:45:37.063Z,77.48
2022-12-18T01:46:36.975Z,77.48
2022-12-18T01:47:36.980Z,77.59
2022-12-18T01:48:36.967Z,77.59
2022-12-18T01:49:36.949Z,77.62
2022-12-18T01:50:36.940Z,77.73
2022-12-18T01:51:36.928Z,77.84
2022-12-18T01:52:36.938Z,77.94
2022-12-18T01:53:37.263Z,78.05
2022-12-18T01:54:36.900Z,78.16
2022-12-18T01:55:36.889Z,78.05
2022-12-18T01:56:36.879Z,78.05
2022-12-18T01:57:36.882Z,77.94
2022-12-18T01:58:36.860Z,77.94
2022-12-18T01:59:36.841Z,78.05
2022-12-18T02:00:36.845Z,78.05
2022-12-18T02:01:36.963Z,78.05
2022-12-18T02:02:36.915Z,78.05
2022-12-18T02:03:37.164Z,77.94
2022-12-18T02:04:36.801Z,77.73
2022-12-18T02:05:36.788Z,77.48
2022-12-18T02:06:36.782Z,77.31
2022-12-18T02:07:36.781Z,77.20
2022-12-18T02:08:36.761Z,77.20
2022-12-18T02:09:36.749Z,77.31
2022-12-18T02:10:36.742Z,77.41
2022-12-18T02:11:36.723Z,77.41
2022-12-18T02:12:37.952Z,77.37
2022-12-18T02:13:37.135Z,77.27
2022-12-18T02:14:36.700Z,77.16
2022-12-18T02:15:36.696Z,76.84
2022-12-18T02:16:36.741Z,76.64
2022-12-18T02:17:36.697Z,76.56
2022-12-18T02:18:36.663Z,76.56
2022-12-18T02:19:36.651Z,76.56
2022-12-18T02:20:36.644Z,76.78
2022-12-18T02:21:36.632Z,76.98
2022-12-18T02:22:36.642Z,77.09
2022-12-18T02:23:36.922Z,77.09
2022-12-18T02:24:36.604Z,77.31
2022-12-18T02:25:36.601Z,77.31
2022-12-18T02:26:36.591Z,77.41
2022-12-18T02:27:36.593Z,77.41
2022-12-18T02:28:36.564Z,77.31
2022-12-18T02:29:36.553Z,77.41
2022-12-18T02:30:36.578Z,77.51
2022-12-18T02:31:36.534Z,77.62
2022-12-18T02:32:36.545Z,77.73
2022-12-18T02:33:36.870Z,77.76
2022-12-18T02:34:36.533Z,77.76
2022-12-18T02:35:36.643Z,77.87
2022-12-18T02:36:36.495Z,77.73
2022-12-18T02:37:36.493Z,77.76
2022-12-18T02:38:36.493Z,77.76
2022-12-18T02:39:36.465Z,77.76
2022-12-18T02:40:36.447Z,77.76
2022-12-18T02:41:36.434Z,77.76
2022-12-18T02:42:37.271Z,77.76
2022-12-18T02:43:36.763Z,77.66
2022-12-18T02:44:36.407Z,77.55
2022-12-18T02:45:36.463Z,77.45
2022-12-18T02:46:36.387Z,77.45
2022-12-18T02:47:36.425Z,77.45
2022-12-18T02:48:36.365Z,77.45
2022-12-18T02:49:36.347Z,77.55
2022-12-18T02:50:36.349Z,77.55
2022-12-18T02:51:36.368Z,77.66
2022-12-18T02:52:36.347Z,77.66
2022-12-18T02:53:36.731Z,77.66
2022-12-18T02:54:36.309Z,77.66
2022-12-18T02:55:36.297Z,77.76
2022-12-18T02:56:36.293Z,77.55
2022-12-18T02:57:36.300Z,77.45
2022-12-18T02:58:36.269Z,77.34
2022-12-18T02:59:36.248Z,77.23
2022-12-18T03:00:36.248Z,77.23
2022-12-18T03:01:36.382Z,77.23
2022-12-18T03:02:36.327Z,77.23
2022-12-18T03:03:36.669Z,77.12
2022-12-18T03:04:36.208Z,77.12
2022-12-18T03:05:36.189Z,77.02
2022-12-18T03:06:36.189Z,77.12
2022-12-18T03:07:36.192Z,77.02
2022-12-18T03:08:36.192Z,77.02
2022-12-18T03:09:36.160Z,77.23
2022-12-18T03:10:36.150Z,77.12
2022-12-18T03:11:36.141Z,77.12
2022-12-18T03:12:36.150Z,76.92
2022-12-18T03:13:36.389Z,76.81
2022-12-18T03:14:36.111Z,76.70
2022-12-18T03:15:36.098Z,76.70
2022-12-18T03:16:36.115Z,76.73
2022-12-18T03:17:36.092Z,76.63
2022-12-18T03:18:36.071Z,76.63
2022-12-18T03:19:36.051Z,76.63
2022-12-18T03:20:36.060Z,76.63
2022-12-18T03:21:36.032Z,76.73
2022-12-18T03:22:36.068Z,76.73
2022-12-18T03:23:36.020Z,76.53
2022-12-18T03:24:36.014Z,76.63
2022-12-18T03:25:35.995Z,76.53
2022-12-18T03:26:35.995Z,76.31
2022-12-18T03:27:35.994Z,76.20
2022-12-18T03:28:35.973Z,76.20
2022-12-18T03:29:35.963Z,76.42
2022-12-18T03:30:35.991Z,76.53
2022-12-18T03:31:35.935Z,76.53
2022-12-18T03:32:35.933Z,76.31
2022-12-18T03:33:36.247Z,76.20
2022-12-18T03:34:35.912Z,75.99
2022-12-18T03:35:35.896Z,75.99
2022-12-18T03:36:35.884Z,75.99
2022-12-18T03:37:35.884Z,75.99
2022-12-18T03:38:35.895Z,75.99
2022-12-18T03:39:35.855Z,75.99
2022-12-18T03:40:35.852Z,75.99
2022-12-18T03:41:35.834Z,75.99
2022-12-18T03:42:35.836Z,75.89
2022-12-18T03:43:35.850Z,75.99
2022-12-18T03:44:35.827Z,75.78
2022-12-18T03:45:35.795Z,75.78
2022-12-18T03:46:35.795Z,75.57
2022-12-18T03:47:35.801Z,75.57
2022-12-18T03:48:35.786Z,75.46
2022-12-18T03:49:35.756Z,75.46
2022-12-18T03:50:35.756Z,75.46
2022-12-18T03:51:35.736Z,75.67
2022-12-18T03:52:35.735Z,75.67
2022-12-18T03:53:35.739Z,75.67
2022-12-18T03:54:35.717Z,75.46
2022-12-18T03:55:35.704Z,75.46
2022-12-18T03:56:35.698Z,75.46
2022-12-18T03:57:35.679Z,75.46
2022-12-18T03:58:35.695Z,75.46
2022-12-18T03:59:35.664Z,75.57
2022-12-18T04:00:35.660Z,75.46
2022-12-18T04:01:35.753Z,75.39
2022-12-18T04:02:35.826Z,75.60
2022-12-18T04:03:36.476Z,75.60
2022-12-18T04:04:35.617Z,75.67
2022-12-18T04:05:35.609Z,75.60
2022-12-18T04:06:35.624Z,75.57
2022-12-18T04:07:35.580Z,75.49
2022-12-18T04:08:35.618Z,75.46
2022-12-18T04:09:35.561Z,75.46
2022-12-18T04:10:35.558Z,75.39
2022-12-18T04:11:35.539Z,75.28
2022-12-18T04:12:35.547Z,75.35
2022-12-18T04:13:35.551Z,75.25
2022-12-18T04:14:35.518Z,75.14
2022-12-18T04:15:35.644Z,75.39
2022-12-18T04:16:35.499Z,75.39
2022-12-18T04:17:35.488Z,75.28
2022-12-18T04:18:35.502Z,75.18
2022-12-18T04:19:35.474Z,75.28
2022-12-18T04:20:35.462Z,75.39
2022-12-18T04:21:35.441Z,75.39
2022-12-18T04:22:35.442Z,75.28
2022-12-18T04:23:35.450Z,75.49
2022-12-18T04:24:35.438Z,75.60
2022-12-18T04:25:35.412Z,75.71
2022-12-18T04:26:35.398Z,75.71
2022-12-18T04:27:35.401Z,75.81
2022-12-18T04:28:35.392Z,75.81
2022-12-18T04:29:35.363Z,75.71
2022-12-18T04:30:35.362Z,75.49
2022-12-18T04:31:35.435Z,75.18
2022-12-18T04:32:35.352Z,75.07
2022-12-18T04:33:35.366Z,74.96
2022-12-18T04:34:35.323Z,74.86
2022-12-18T04:35:35.325Z,74.65
2022-12-18T04:36:35.302Z,74.43
2022-12-18T04:37:35.293Z,74.22
2022-12-18T04:38:35.313Z,74.11
2022-12-18T04:39:35.265Z,73.90
2022-12-18T04:40:35.277Z,73.69
2022-12-18T04:41:35.245Z,73.58
2022-12-18T04:42:35.316Z,73.69
2022-12-18T04:43:35.251Z,73.69
2022-12-18T04:44:35.224Z,73.47
2022-12-18T04:45:35.204Z,73.26
2022-12-18T04:46:35.265Z,73.26
2022-12-18T04:47:35.184Z,73.26
2022-12-18T04:48:35.195Z,73.02
2022-12-18T04:49:35.166Z,72.63
2022-12-18T04:50:35.165Z,72.52
2022-12-18T04:51:35.153Z,72.41
2022-12-18T04:52:35.155Z,71.98
2022-12-18T04:53:35.146Z,72.20
2022-12-18T04:54:35.126Z,72.20
2022-12-18T04:55:35.123Z,72.09
2022-12-18T04:56:35.115Z,71.98
2022-12-18T04:57:35.086Z,72.20
2022-12-18T04:58:35.110Z,72.30
2022-12-18T04:59:35.077Z,72.20
2022-12-18T05:00:35.080Z,72.20
2022-12-18T05:01:35.432Z,72.09
2022-12-18T05:02:35.168Z,72.09
2022-12-18T05:03:35.084Z,71.98
2022-12-18T05:04:35.035Z,71.67
2022-12-18T05:05:35.027Z,71.14
2022-12-18T05:06:35.017Z,71.03
2022-12-18T05:07:35.005Z,71.03
2022-12-18T05:08:35.010Z,70.95
2022-12-18T05:09:34.978Z,70.95
2022-12-18T05:10:38.185Z,70.95
2022-12-18T05:11:34.958Z,71.17
2022-12-18T05:12:34.958Z,71.38
2022-12-18T05:13:34.958Z,71.59
2022-12-18T05:14:34.948Z,71.59
2022-12-18T05:15:35.095Z,71.38
2022-12-18T05:16:34.920Z,70.95
2022-12-18T05:17:34.909Z,70.64
2022-12-18T05:18:34.920Z,70.74
2022-12-18T05:19:34.899Z,70.95
2022-12-18T05:20:34.897Z,71.06
2022-12-18T05:21:34.871Z,71.17
2022-12-18T05:22:34.870Z,71.06
2022-12-18T05:23:34.888Z,71.06
2022-12-18T05:24:34.849Z,70.95
2022-12-18T05:25:34.843Z,70.74
2022-12-18T05:26:34.831Z,70.53
2022-12-18T05:27:34.822Z,70.56
2022-12-18T05:28:34.840Z,70.53
2022-12-18T05:29:34.801Z,70.42
2022-12-18T05:30:34.801Z,70.14
2022-12-18T05:31:39.516Z,70.14
2022-12-18T05:32:35.781Z,70.03
2022-12-18T05:33:34.779Z,69.82
2022-12-18T05:34:34.751Z,69.92
2022-12-18T05:35:34.742Z,70.03
2022-12-18T05:36:34.743Z,69.82
2022-12-18T05:37:39.528Z,69.92
2022-12-18T05:38:35.742Z,69.82
2022-12-18T05:39:34.702Z,69.92
2022-12-18T05:40:34.702Z,70.14
2022-12-18T05:41:34.713Z,70.24
2022-12-18T05:42:34.683Z,70.35
2022-12-18T05:43:34.683Z,70.35
2022-12-18T05:44:34.662Z,70.24
2022-12-18T05:45:34.653Z,69.92
2022-12-18T05:46:34.693Z,69.92
2022-12-18T05:47:34.637Z,69.82
2022-12-18T05:48:34.663Z,69.71
2022-12-18T05:49:34.616Z,69.49
2022-12-18T05:50:34.612Z,69.49
2022-12-18T05:51:34.594Z,69.71
2022-12-18T05:52:34.595Z,69.71
2022-12-18T05:53:34.595Z,69.49
2022-12-18T05:54:34.574Z,69.60
2022-12-18T05:55:34.562Z,69.74
2022-12-18T05:56:34.564Z,70.06
2022-12-18T05:57:34.543Z,70.06
2022-12-18T05:58:34.554Z,69.74
2022-12-18T05:59:34.524Z,69.74
2022-12-18T06:00:34.516Z,69.95
2022-12-18T06:01:34.550Z,69.95
2022-12-18T06:02:34.560Z,70.17
2022-12-18T06:03:34.571Z,70.06
2022-12-18T06:04:34.476Z,70.17
2022-12-18T06:05:34.476Z,70.27
2022-12-18T06:06:34.464Z,70.17
2022-12-18T06:07:34.459Z,70.06
2022-12-18T06:08:34.456Z,69.98
2022-12-18T06:09:34.437Z,70.20
2022-12-18T06:10:34.427Z,70.51
2022-12-18T06:11:34.418Z,70.62
2022-12-18T06:12:34.407Z,70.73
2022-12-18T06:13:34.417Z,70.51
2022-12-18T06:14:34.398Z,70.48
2022-12-18T06:15:34.411Z,70.48
2022-12-18T06:16:34.441Z,70.38
2022-12-18T06:17:34.366Z,70.17
2022-12-18T06:18:34.368Z,69.95
2022-12-18T06:19:34.347Z,69.85
2022-12-18T06:20:34.334Z,69.85
2022-12-18T06:21:34.328Z,69.85
2022-12-18T06:22:34.318Z,69.64
2022-12-18T06:23:34.347Z,69.53
2022-12-18T06:24:34.301Z,69.18
2022-12-18T06:25:34.296Z,68.86
2022-12-18T06:26:34.278Z,68.86
2022-12-18T06:27:34.277Z,68.57
2022-12-18T06:28:34.278Z,68.54
2022-12-18T06:29:34.259Z,68.57
2022-12-18T06:30:34.240Z,68.68
2022-12-18T06:31:34.278Z,68.46
2022-12-18T06:32:34.250Z,68.25
2022-12-18T06:33:34.240Z,68.46
2022-12-18T06:34:34.210Z,68.49
2022-12-18T06:35:34.200Z,68.81
2022-12-18T06:36:34.191Z,69.13
2022-12-18T06:37:34.193Z,69.45
2022-12-18T06:38:34.177Z,69.34
2022-12-18T06:39:34.181Z,69.45
2022-12-18T06:40:34.151Z,69.56
2022-12-18T06:41:34.161Z,69.67
2022-12-18T06:42:34.141Z,69.56
2022-12-18T06:43:34.141Z,69.56
2022-12-18T06:44:34.139Z,69.67
2022-12-18T06:45:34.149Z,69.67
2022-12-18T06:46:34.101Z,69.56
2022-12-18T06:47:34.104Z,69.45
2022-12-18T06:48:34.091Z,69.45
2022-12-18T06:49:34.099Z,69.13
2022-12-18T06:50:34.071Z,69.13
2022-12-18T06:51:34.091Z,68.81
2022-12-18T06:52:34.008Z,68.71
2022-12-18T06:53:34.001Z,68.49
2022-12-18T06:54:34.052Z,68.38
2022-12-18T06:55:34.033Z,68.49
2022-12-18T06:56:34.026Z,68.81
2022-12-18T06:57:34.021Z,68.92
2022-12-18T06:58:34.004Z,68.92
2022-12-18T06:59:34.014Z,69.02
2022-12-18T07:00:33.994Z,69.02
2022-12-18T07:01:34.041Z,69.02
2022-12-18T07:02:34.097Z,69.13
2022-12-18T07:03:33.966Z,69.24
2022-12-18T07:04:33.920Z,69.13
2022-12-18T07:05:33.894Z,68.71
2022-12-18T07:06:33.874Z,68.18
2022-12-18T07:07:33.873Z,68.41
2022-12-18T07:08:33.867Z,68.74
2022-12-18T07:09:33.884Z,68.95
2022-12-18T07:10:33.844Z,68.84
2022-12-18T07:11:33.845Z,68.84
2022-12-18T07:12:33.825Z,68.84
2022-12-18T07:13:33.817Z,68.95
2022-12-18T07:14:33.822Z,69.17
2022-12-18T07:15:33.805Z,69.17
2022-12-18T07:16:33.821Z,69.06
2022-12-18T07:17:33.785Z,69.06
2022-12-18T07:18:33.777Z,69.17
2022-12-18T07:19:33.785Z,69.06
2022-12-18T07:20:33.757Z,68.84
2022-12-18T07:21:33.758Z,68.84
2022-12-18T07:22:33.736Z,68.84
2022-12-18T07:23:33.727Z,68.95
2022-12-18T07:24:33.737Z,68.95
2022-12-18T07:25:33.717Z,69.06
2022-12-18T07:26:33.708Z,69.17
2022-12-18T07:27:33.700Z,69.17
2022-12-18T07:28:33.681Z,69.06
2022-12-18T07:29:33.698Z,69.17
2022-12-18T07:30:33.687Z,69.27
2022-12-18T07:31:33.679Z,69.27
2022-12-18T07:32:34.591Z,69.38
2022-12-18T07:33:33.638Z,69.38
2022-12-18T07:34:33.649Z,69.38
2022-12-18T07:35:33.630Z,69.27
2022-12-18T07:36:33.618Z,69.27
2022-12-18T07:37:33.609Z,69.48
2022-12-18T07:38:33.599Z,69.48
2022-12-18T07:39:33.610Z,69.48
2022-12-18T07:40:33.578Z,69.34
2022-12-18T07:41:33.569Z,69.45
2022-12-18T07:42:33.558Z,69.45
2022-12-18T07:43:33.559Z,69.45
2022-12-18T07:44:33.561Z,69.56
2022-12-18T07:45:33.613Z,69.45
2022-12-18T07:46:33.522Z,69.56
2022-12-18T07:47:33.560Z,69.88
2022-12-18T07:48:33.513Z,70.09
2022-12-18T07:49:33.520Z,70.09
2022-12-18T07:50:33.491Z,70.12
2022-12-18T07:51:33.489Z,70.23
2022-12-18T07:52:33.483Z,70.44
2022-12-18T07:53:34.215Z,70.62
2022-12-18T07:54:33.472Z,70.73
2022-12-18T07:55:54.760Z,70.84
2022-12-18T07:56:34.433Z,70.73
2022-12-18T07:57:50.019Z,70.73
2022-12-18T07:58:34.421Z,70.94
2022-12-18T07:59:33.433Z,70.84
2022-12-18T08:00:33.402Z,70.84
2022-12-18T08:01:33.480Z,70.73
2022-12-18T08:02:33.479Z,70.62
2022-12-18T08:03:33.382Z,70.84
2022-12-18T08:04:33.393Z,71.37
2022-12-18T08:05:33.368Z,71.83
2022-12-18T08:06:33.351Z,71.80
2022-12-18T08:07:33.343Z,72.01
2022-12-18T08:08:33.332Z,72.01
2022-12-18T08:09:33.344Z,72.01
2022-12-18T08:10:33.319Z,72.33
2022-12-18T08:11:33.304Z,72.44
2022-12-18T08:12:33.297Z,72.54
2022-12-18T08:13:33.302Z,72.65
2022-12-18T08:14:33.294Z,72.65
2022-12-18T08:15:33.275Z,72.65
2022-12-18T08:16:33.280Z,72.54
2022-12-18T08:17:33.254Z,72.65
2022-12-18T08:18:33.235Z,72.86
2022-12-18T08:19:33.254Z,72.97
2022-12-18T08:20:33.233Z,73.18
2022-12-18T08:21:33.217Z,73.50
2022-12-18T08:22:33.206Z,73.47
2022-12-18T08:23:33.892Z,73.28
2022-12-18T08:24:33.205Z,73.14
2022-12-18T08:25:33.189Z,73.14
2022-12-18T08:26:33.167Z,73.14
2022-12-18T08:27:33.166Z,73.04
2022-12-18T08:28:33.157Z,73.04
2022-12-18T08:29:33.172Z,73.14
2022-12-18T08:30:33.182Z,73.25
2022-12-18T08:31:33.155Z,73.36
2022-12-18T08:32:33.117Z,73.47
2022-12-18T08:33:33.107Z,73.47
2022-12-18T08:34:33.116Z,73.36
2022-12-18T08:35:37.874Z,73.47
2022-12-18T08:36:34.080Z,73.79
2022-12-18T08:37:33.103Z,74.00
2022-12-18T08:38:33.068Z,74.32
2022-12-18T08:39:33.058Z,74.53
2022-12-18T08:40:33.061Z,74.74
2022-12-18T08:41:33.040Z,74.96
2022-12-18T08:42:33.024Z,75.17
2022-12-18T08:43:33.023Z,75.27
2022-12-18T08:44:33.009Z,75.35
2022-12-18T08:45:33.026Z,75.46
2022-12-18T08:46:33.083Z,75.46
2022-12-18T08:47:33.125Z,75.67
2022-12-18T08:48:32.970Z,75.67
2022-12-18T08:49:32.974Z,75.78
2022-12-18T08:50:32.970Z,75.88
2022-12-18T08:51:32.973Z,75.85
2022-12-18T08:52:32.938Z,75.85
2022-12-18T08:53:35.747Z,75.85
2022-12-18T08:54:32.920Z,76.06
2022-12-18T08:55:32.933Z,76.06
2022-12-18T08:56:32.981Z,76.28
2022-12-18T08:57:32.913Z,76.59
2022-12-18T08:58:32.884Z,76.81
2022-12-18T08:59:32.881Z,76.91
2022-12-18T09:00:32.881Z,77.12
2022-12-18T09:01:32.959Z,77.23
2022-12-18T09:02:32.980Z,77.44
2022-12-18T09:03:32.891Z,77.55
2022-12-18T09:04:32.831Z,77.66
2022-12-18T09:05:32.843Z,77.97
2022-12-18T09:06:32.805Z,78.08
2022-12-18T09:07:32.819Z,78.47
2022-12-18T09:08:32.801Z,78.58
2022-12-18T09:09:32.784Z,78.47
2022-12-18T09:10:32.784Z,78.58
2022-12-18T09:11:32.781Z,78.47
2022-12-18T09:12:32.762Z,78.47
2022-12-18T09:13:32.753Z,78.47
2022-12-18T09:14:32.733Z,78.58
2022-12-18T09:15:32.745Z,78.69
2022-12-18T09:16:33.075Z,78.79
2022-12-18T09:17:32.729Z,78.90
2022-12-18T09:18:32.695Z,78.97
2022-12-18T09:19:32.692Z,78.97
2022-12-18T09:20:32.692Z,79.08
2022-12-18T09:21:32.696Z,79.08
2022-12-18T09:22:32.655Z,79.18
2022-12-18T09:23:32.654Z,79.28
2022-12-18T09:24:32.637Z,79.39
2022-12-18T09:25:32.913Z,79.39
2022-12-18T09:26:32.616Z,79.50
2022-12-18T09:27:32.646Z,79.71
2022-12-18T09:28:32.607Z,79.68
2022-12-18T09:29:32.592Z,79.89
2022-12-18T09:30:32.638Z,79.89
2022-12-18T09:31:32.595Z,79.79
2022-12-18T09:32:32.573Z,79.79
2022-12-18T09:33:32.558Z,79.99
2022-12-18T09:34:32.544Z,80.10
2022-12-18T09:35:32.555Z,80.10
2022-12-18T09:36:32.520Z,80.10
2022-12-18T09:37:32.517Z,80.28
2022-12-18T09:38:32.508Z,80.38
2022-12-18T09:39:32.496Z,80.49
2022-12-18T09:40:32.500Z,80.49
2022-12-18T09:41:32.488Z,80.49
2022-12-18T09:42:32.468Z,80.49
2022-12-18T09:43:32.468Z,80.60
2022-12-18T09:44:32.522Z,80.77
2022-12-18T09:45:32.456Z,80.99
2022-12-18T09:46:32.487Z,80.99
2022-12-18T09:47:32.417Z,80.99
2022-12-18T09:48:32.407Z,81.09
2022-12-18T09:49:32.400Z,81.09
2022-12-18T09:50:32.399Z,80.84
2022-12-18T09:51:32.388Z,80.74
2022-12-18T09:52:32.368Z,80.74
2022-12-18T09:53:32.359Z,80.74
2022-12-18T09:54:32.350Z,80.95
2022-12-18T09:55:37.151Z,80.95
2022-12-18T09:56:33.321Z,80.95
2022-12-18T09:57:32.321Z,81.16
2022-12-18T09:58:32.299Z,81.23
2022-12-18T09:59:32.299Z,81.45
2022-12-18T10:00:32.300Z,81.45
2022-12-18T10:01:41.419Z,81.45
2022-12-18T10:02:33.435Z,81.55
2022-12-18T10:03:32.260Z,81.34
2022-12-18T10:04:32.300Z,81.12
2022-12-18T10:05:32.261Z,80.98
2022-12-18T10:06:32.221Z,81.09
2022-12-18T10:07:32.229Z,81.09
2022-12-18T10:08:32.201Z,81.09
2022-12-18T10:09:32.203Z,81.20
2022-12-18T10:10:32.201Z,81.30
2022-12-18T10:11:32.181Z,81.51
2022-12-18T10:12:32.186Z,81.62
2022-12-18T10:13:32.176Z,81.79
2022-12-18T10:14:32.143Z,81.79
2022-12-18T10:15:32.238Z,81.79
2022-12-18T10:16:32.130Z,81.79
2022-12-18T10:17:32.132Z,82.01
2022-12-18T10:18:32.102Z,82.18
2022-12-18T10:19:32.103Z,82.18
2022-12-18T10:20:32.114Z,81.97
2022-12-18T10:21:32.083Z,81.65
2022-12-18T10:22:32.074Z,81.65
2022-12-18T10:23:32.062Z,81.76
2022-12-18T10:24:32.054Z,81.76
2022-12-18T10:25:32.062Z,81.65
2022-12-18T10:26:32.041Z,81.72
2022-12-18T10:27:32.027Z,81.82
2022-12-18T10:28:32.015Z,81.93
2022-12-18T10:29:32.008Z,82.04
2022-12-18T10:30:32.025Z,82.14
2022-12-18T10:31:32.004Z,82.14
2022-12-18T10:32:31.988Z,82.10
2022-12-18T10:33:31.976Z,82.21
2022-12-18T10:34:31.966Z,82.10
2022-12-18T10:35:31.965Z,82.07
2022-12-18T10:36:31.949Z,81.96
2022-12-18T10:37:31.925Z,81.85
2022-12-18T10:38:31.933Z,81.85
2022-12-18T10:39:31.914Z,81.82
2022-12-18T10:40:31.926Z,81.61
2022-12-18T10:41:31.904Z,81.40
2022-12-18T10:42:31.886Z,81.40
2022-12-18T10:43:31.866Z,81.50
2022-12-18T10:44:31.866Z,81.50
2022-12-18T10:45:31.867Z,81.15
2022-12-18T10:46:31.937Z,81.04
2022-12-18T10:47:31.829Z,80.94
2022-12-18T10:48:31.827Z,80.94
2022-12-18T10:49:31.828Z,80.83
2022-12-18T10:51:01.702Z,80.62
2022-12-18T10:51:32.788Z,80.52
2022-12-18T10:52:31.799Z,80.62
2022-12-18T10:53:31.779Z,80.80
2022-12-18T10:54:31.777Z,81.01
2022-12-18T10:55:31.787Z,81.01
2022-12-18T10:56:31.757Z,80.90
2022-12-18T10:57:31.739Z,80.90
2022-12-18T10:58:31.749Z,80.90
2022-12-18T10:59:31.719Z,81.01
2022-12-18T11:00:31.731Z,81.18
2022-12-18T11:01:31.766Z,81.18
2022-12-18T11:02:31.915Z,81.18
2022-12-18T11:03:31.802Z,81.08
2022-12-18T11:04:31.678Z,81.08
2022-12-18T11:05:31.680Z,81.08
2022-12-18T11:06:31.652Z,80.93
2022-12-18T11:07:31.643Z,80.97
2022-12-18T11:08:31.640Z,80.93
2022-12-18T11:09:31.621Z,80.62
2022-12-18T11:10:31.621Z,80.65
2022-12-18T11:11:31.629Z,80.62
2022-12-18T11:12:31.602Z,80.51
2022-12-18T11:13:31.586Z,80.41
2022-12-18T11:14:31.582Z,80.41
2022-12-18T11:15:31.562Z,80.30
2022-12-18T11:16:31.617Z,80.30
2022-12-18T11:17:31.586Z,80.41
2022-12-18T11:18:31.541Z,80.41
2022-12-18T11:19:31.524Z,80.51
2022-12-18T11:20:31.523Z,80.51
2022-12-18T11:21:31.525Z,80.51
2022-12-18T11:22:31.504Z,80.51
2022-12-18T11:23:31.484Z,80.62
2022-12-18T11:24:31.483Z,80.73
2022-12-18T11:25:33.305Z,80.73
2022-12-18T11:26:31.485Z,80.73
2022-12-18T11:27:31.444Z,80.83
2022-12-18T11:28:31.451Z,80.93
2022-12-18T11:29:31.425Z,81.04
2022-12-18T11:30:31.513Z,81.04
2022-12-18T11:31:31.447Z,81.04
2022-12-18T11:32:31.407Z,81.04
2022-12-18T11:33:31.409Z,81.04
2022-12-18T11:34:31.465Z,80.93
2022-12-18T11:35:31.375Z,80.93
2022-12-18T11:36:31.388Z,81.15
2022-12-18T11:37:31.346Z,81.15
2022-12-18T11:38:31.354Z,81.11
2022-12-18T11:39:31.335Z,81.11
2022-12-18T11:40:32.238Z,81.11
2022-12-18T11:41:31.328Z,81.01
2022-12-18T11:42:31.307Z,80.90
2022-12-18T11:43:31.318Z,80.90
2022-12-18T11:44:31.305Z,80.90
2022-12-18T11:45:31.277Z,81.01
2022-12-18T11:46:31.311Z,81.01
2022-12-18T11:47:31.248Z,81.01
2022-12-18T11:48:31.251Z,80.90
2022-12-18T11:49:31.229Z,81.01
2022-12-18T11:50:31.228Z,81.01
2022-12-18T11:51:31.228Z,81.01
2022-12-18T11:52:31.209Z,80.90
2022-12-18T11:53:31.217Z,80.86
2022-12-18T11:54:31.189Z,81.07
2022-12-18T11:55:31.179Z,81.07
2022-12-18T11:56:31.191Z,81.18
2022-12-18T11:57:31.186Z,81.07
2022-12-18T11:58:31.770Z,81.18
2022-12-18T11:59:31.141Z,81.07
2022-12-18T12:00:31.130Z,81.18
2022-12-18T12:01:31.254Z,81.28
2022-12-18T12:02:31.154Z,81.49
2022-12-18T12:03:31.141Z,81.49
2022-12-18T12:04:31.152Z,81.39
2022-12-18T12:05:31.082Z,81.39
2022-12-18T12:06:31.089Z,81.49
2022-12-18T12:07:31.062Z,81.60
2022-12-18T12:08:31.051Z,81.70
2022-12-18T12:09:31.042Z,81.70
2022-12-18T12:10:31.040Z,81.81
2022-12-18T12:11:31.055Z,81.70
2022-12-18T12:12:31.016Z,81.70
2022-12-18T12:13:30.994Z,81.70
2022-12-18T12:14:31.011Z,81.60
2022-12-18T12:15:30.982Z,81.60
2022-12-18T12:16:31.095Z,81.60
2022-12-18T12:17:30.990Z,81.70
2022-12-18T12:18:30.954Z,81.92
2022-12-18T12:19:30.947Z,82.02
2022-12-18T12:20:35.828Z,82.13
2022-12-18T12:21:31.935Z,82.44
2022-12-18T12:22:30.915Z,82.55
2022-12-18T12:23:30.905Z,82.65
2022-12-18T12:24:30.895Z,82.65
2022-12-18T12:25:30.888Z,82.55
2022-12-18T12:26:30.896Z,82.65
2022-12-18T12:27:30.877Z,82.76
2022-12-18T12:28:30.864Z,82.86
2022-12-18T12:29:30.847Z,82.86
2022-12-18T12:30:30.841Z,83.07
2022-12-18T12:31:30.871Z,83.07
2022-12-18T12:32:30.827Z,83.07
2022-12-18T12:33:30.806Z,83.07
2022-12-18T12:34:30.806Z,83.29
2022-12-18T12:35:30.791Z,83.36
2022-12-18T12:36:30.806Z,83.50
2022-12-18T12:37:30.767Z,83.56
2022-12-18T12:38:30.765Z,83.78
2022-12-18T12:39:30.817Z,83.88
2022-12-18T12:41:31.768Z,83.98
2022-12-18T12:42:30.726Z,84.09
2022-12-18T12:43:30.709Z,84.30
2022-12-18T12:44:30.699Z,84.30
2022-12-18T12:45:30.713Z,84.30
2022-12-18T12:46:30.690Z,84.52
2022-12-18T12:47:30.691Z,84.52
2022-12-18T12:48:30.680Z,84.62
2022-12-18T12:49:31.197Z,84.62
2022-12-18T12:50:30.649Z,84.62
2022-12-18T12:51:30.638Z,84.62
2022-12-18T12:52:30.650Z,84.72
2022-12-18T12:53:30.611Z,84.72